createdAt,value
2023-04-14T00:02:24.995Z,4.15
2023-04-14T00:04:55.250Z,3.50
2023-04-14T00:07:22.125Z,2.88
2023-04-14T00:09:49.134Z,6.38
2023-04-14T00:12:16.118Z,5.15
2023-04-14T00:14:43.467Z,6.72
2023-04-14T00:17:11.197Z,3.70
2023-04-14T00:19:38.260Z,4.65
2023-04-14T00:22:05.121Z,3.63
2023-04-14T00:24:32.186Z,4.82
2023-04-14T00:26:59.156Z,5.32
2023-04-14T00:29:26.461Z,6.10
2023-04-14T00:31:53.437Z,4.60
2023-04-14T00:34:20.353Z,4.22
2023-04-14T00:36:47.229Z,8.25
2023-04-14T00:39:14.139Z,6.63
2023-04-14T00:41:41.311Z,7.25
2023-04-14T00:44:08.287Z,7.55
2023-04-14T00:46:37.892Z,7.10
2023-04-14T00:49:05.335Z,6.45
2023-04-14T00:51:33.859Z,6.65
2023-04-14T00:54:05.570Z,9.00
2023-04-14T00:56:32.862Z,7.10
2023-04-14T00:59:03.419Z,5.53
2023-04-14T01:01:31.698Z,6.47
2023-04-14T01:03:58.857Z,6.07
2023-04-14T01:06:28.254Z,7.93
2023-04-14T01:08:55.666Z,6.35
2023-04-14T01:11:37.803Z,6.43
2023-04-14T01:14:07.931Z,6.15
2023-04-14T01:16:39.093Z,5.40
2023-04-14T01:19:36.616Z,6.95
2023-04-14T01:22:09.508Z,7.32
2023-04-14T01:24:55.228Z,8.52
2023-04-14T01:27:33.355Z,7.40
2023-04-14T01:30:25.122Z,7.10
2023-04-14T01:32:56.583Z,6.60
2023-04-14T01:35:37.563Z,7.95
2023-04-14T01:38:09.946Z,7.05
2023-04-14T01:40:39.000Z,6.43
2023-04-14T01:43:11.963Z,6.50
2023-04-14T01:45:44.594Z,6.95
2023-04-14T01:48:12.547Z,6.53
2023-04-14T01:50:42.000Z,8.05
2023-04-14T01:53:10.766Z,7.68
2023-04-14T01:55:40.321Z,7.45
2023-04-14T01:58:09.468Z,8.55
2023-04-14T02:00:39.836Z,7.35
2023-04-14T02:03:07.757Z,7.18
2023-04-14T02:05:38.921Z,8.07
2023-04-14T02:08:11.130Z,8.90
2023-04-14T02:10:40.650Z,8.18
2023-04-14T02:13:10.916Z,7.30
2023-04-14T02:15:41.031Z,7.72
2023-04-14T02:18:08.798Z,6.63
2023-04-14T02:20:42.644Z,6.05
2023-04-14T02:23:12.286Z,8.15
2023-04-14T02:25:45.819Z,6.95
2023-04-14T02:28:19.411Z,6.95
2023-04-14T02:30:50.328Z,5.55
2023-04-14T02:33:22.030Z,5.47
2023-04-14T02:35:56.426Z,5.90
2023-04-14T02:38:44.869Z,5.68
2023-04-14T02:41:17.117Z,6.10
2023-04-14T02:44:07.669Z,7.32
2023-04-14T02:46:41.041Z,5.88
2023-04-14T02:49:12.929Z,6.38
2023-04-14T02:51:43.856Z,7.00
2023-04-14T02:54:13.015Z,5.95
2023-04-14T02:56:45.817Z,6.78
2023-04-14T02:59:13.193Z,5.50
2023-04-14T03:01:52.710Z,6.25
2023-04-14T03:04:21.367Z,5.65
2023-04-14T03:06:49.103Z,7.55
2023-04-14T03:09:18.377Z,6.82
2023-04-14T03:11:47.947Z,6.07
2023-04-14T03:14:17.705Z,6.20
2023-04-14T03:16:46.095Z,7.90
2023-04-14T03:19:14.101Z,5.85
2023-04-14T03:21:46.282Z,6.35
2023-04-14T03:24:18.088Z,6.03
2023-04-14T03:26:47.408Z,8.70
2023-04-14T03:29:16.520Z,7.00
2023-04-14T03:31:44.444Z,6.88
2023-04-14T03:34:15.339Z,8.30
2023-04-14T03:36:48.725Z,6.80
2023-04-14T03:39:17.892Z,8.98
2023-04-14T03:41:49.332Z,11.50
2023-04-14T03:44:19.974Z,8.55
2023-04-14T03:46:50.081Z,7.63
2023-04-14T03:49:20.868Z,7.35
2023-04-14T03:51:53.658Z,7.82
2023-04-14T03:56:51.804Z,7.38
2023-04-14T03:59:21.730Z,7.10
2023-04-14T04:01:49.649Z,7.05
2023-04-14T04:04:18.041Z,7.05
2023-04-14T04:06:46.443Z,7.68
2023-04-14T04:09:16.099Z,8.57
2023-04-14T04:11:45.861Z,8.43
2023-04-14T04:14:15.236Z,7.72
2023-04-14T04:16:47.770Z,7.85
2023-04-14T04:21:46.608Z,7.82
2023-04-14T04:24:18.694Z,9.18
2023-04-14T04:26:50.627Z,7.88
2023-04-14T04:29:18.182Z,8.00
2023-04-14T04:31:48.335Z,7.00
2023-04-14T04:34:17.667Z,7.78
2023-04-14T04:36:50.066Z,8.35
2023-04-14T04:39:17.640Z,7.33
2023-04-14T04:44:38.404Z,8.13
2023-04-14T04:47:16.164Z,6.82
2023-04-14T04:49:44.636Z,8.00
2023-04-14T04:52:12.020Z,7.63
2023-04-14T04:54:49.803Z,7.38
2023-04-14T04:57:17.171Z,7.13
2023-04-14T04:59:50.434Z,7.55
2023-04-14T05:02:33.303Z,6.57
2023-04-14T05:05:02.145Z,6.85
2023-04-14T05:07:33.276Z,8.52
2023-04-14T05:10:06.387Z,7.60
2023-04-14T05:15:36.796Z,7.85
2023-04-14T05:18:04.120Z,8.98
2023-04-14T05:20:40.521Z,6.90
2023-04-14T05:23:07.783Z,7.45
2023-04-14T05:25:35.742Z,7.30
2023-04-14T05:28:19.870Z,6.93
2023-04-14T05:34:10.024Z,9.95
2023-04-14T05:47:20.891Z,8.27
2023-04-14T05:53:41.724Z,8.60
2023-04-14T05:56:12.725Z,7.35
2023-04-14T06:04:11.919Z,8.07
2023-04-14T06:07:04.595Z,7.13
2023-04-14T06:10:00.390Z,7.25
2023-04-14T06:12:31.161Z,9.48
2023-04-14T06:15:06.576Z,6.57
2023-04-14T06:17:35.648Z,6.07
2023-04-14T06:20:04.461Z,8.27
2023-04-14T06:26:41.255Z,8.95
2023-04-14T06:29:10.507Z,7.15
2023-04-14T06:31:37.558Z,7.45
2023-04-14T06:34:05.740Z,7.85
2023-04-14T06:36:35.700Z,6.85
2023-04-14T06:39:11.382Z,6.35
2023-04-14T06:41:39.442Z,7.57
2023-04-14T06:44:06.736Z,8.15
2023-04-14T06:56:36.404Z,21.25
2023-04-14T06:59:11.652Z,7.10
2023-04-14T07:02:00.034Z,7.72
2023-04-14T07:04:59.174Z,8.23
2023-04-14T07:07:27.675Z,7.15
2023-04-14T07:44:23.685Z,7.55
2023-04-14T07:47:06.429Z,10.18
2023-04-14T07:49:42.335Z,9.20
2023-04-14T07:52:17.220Z,9.45
2023-04-14T07:54:47.351Z,9.15
2023-04-14T07:57:14.711Z,9.50
2023-04-14T07:59:43.273Z,9.38
2023-04-14T08:02:13.510Z,9.98
2023-04-14T08:04:41.399Z,10.68
2023-04-14T08:07:08.725Z,12.70
2023-04-14T08:09:35.880Z,8.80
2023-04-14T08:12:03.464Z,10.43
2023-04-14T08:14:30.888Z,11.98
2023-04-14T08:17:00.741Z,9.32
2023-04-14T08:19:28.129Z,11.88
2023-04-14T08:21:55.271Z,8.68
2023-04-14T08:24:22.380Z,6.50
2023-04-14T08:26:49.621Z,10.05
2023-04-14T08:29:16.949Z,9.00
2023-04-14T08:31:47.620Z,8.85
2023-04-14T08:34:28.639Z,8.02
2023-04-14T08:36:56.927Z,7.65
2023-04-14T08:39:35.079Z,6.80
2023-04-14T08:42:38.207Z,14.10
2023-04-14T08:45:06.839Z,10.82
2023-04-14T08:51:44.957Z,8.80
2023-04-14T08:55:06.869Z,7.53
2023-04-14T08:57:34.601Z,9.68
2023-04-14T09:01:05.067Z,7.97
2023-04-14T09:03:33.349Z,8.73
2023-04-14T09:06:09.941Z,8.82
2023-04-14T09:08:43.297Z,8.75
2023-04-14T09:11:48.172Z,8.30
2023-04-14T09:21:29.011Z,4.43
2023-04-14T09:24:05.481Z,4.18
2023-04-14T09:26:41.100Z,3.67
2023-04-14T09:35:51.520Z,3.40
2023-04-14T09:38:38.475Z,3.42
2023-04-14T09:41:37.800Z,3.22
2023-04-14T09:44:17.423Z,2.90
2023-04-14T09:49:29.365Z,3.70
2023-04-14T09:52:07.562Z,4.03
2023-04-14T09:54:35.220Z,6.20
2023-04-14T09:57:05.446Z,5.32
2023-04-14T09:59:37.167Z,2.80
2023-04-14T10:02:09.371Z,5.40
2023-04-14T10:04:42.269Z,3.42
2023-04-14T10:07:11.272Z,6.00
2023-04-14T10:09:38.999Z,4.55
2023-04-14T10:12:16.278Z,2.28
2023-04-14T10:14:44.495Z,3.55
2023-04-14T10:17:12.960Z,3.58
2023-04-14T10:19:40.812Z,8.05
2023-04-14T10:22:07.864Z,5.88
2023-04-14T10:24:36.088Z,4.15
2023-04-14T10:27:04.059Z,6.10
2023-04-14T10:29:31.481Z,4.22
2023-04-14T10:32:10.662Z,3.05
2023-04-14T10:34:42.024Z,4.38
2023-04-14T10:37:16.415Z,4.25
2023-04-14T10:39:43.500Z,5.05
2023-04-14T10:42:10.646Z,4.38
2023-04-14T10:44:37.990Z,5.53
2023-04-14T10:47:08.388Z,3.55
2023-04-14T10:49:37.730Z,3.33
2023-04-14T10:52:07.978Z,5.18
2023-04-14T10:55:03.988Z,5.47
2023-04-14T10:57:37.688Z,5.60
2023-04-14T11:00:28.402Z,3.72
2023-04-14T11:03:13.666Z,5.57
2023-04-14T11:05:57.205Z,2.67
2023-04-14T11:08:37.093Z,5.15
2023-04-14T11:11:06.169Z,6.00
2023-04-14T11:13:34.965Z,4.32
2023-04-14T11:16:27.065Z,3.35
2023-04-14T11:18:55.779Z,5.60
2023-04-14T11:21:26.368Z,4.40
2023-04-14T11:23:53.373Z,5.35
2023-04-14T11:26:23.813Z,4.80
2023-04-14T11:28:53.350Z,5.43
2023-04-14T11:31:26.708Z,5.43
2023-04-14T11:33:54.821Z,3.70
2023-04-14T11:36:21.928Z,4.50
2023-04-14T11:38:50.134Z,3.25
2023-04-14T11:41:24.436Z,4.43
2023-04-14T11:43:51.856Z,6.55
2023-04-14T11:46:25.035Z,5.32
2023-04-14T11:49:09.007Z,3.50
2023-04-14T11:51:39.269Z,3.15
2023-04-14T11:54:06.943Z,3.97
2023-04-14T11:56:39.514Z,4.15
2023-04-14T11:59:06.745Z,5.15
2023-04-14T12:01:33.870Z,4.63
2023-04-14T12:04:01.153Z,4.65
2023-04-14T12:06:31.474Z,5.88
2023-04-14T12:14:22.737Z,5.03
2023-04-14T12:16:49.850Z,2.85
2023-04-14T12:19:16.861Z,3.75
2023-04-14T12:21:54.708Z,3.20
2023-04-14T12:24:21.924Z,3.83
2023-04-14T12:26:48.990Z,5.32
2023-04-14T12:29:16.515Z,4.63
2023-04-14T12:31:45.227Z,4.57
2023-04-14T12:34:14.937Z,5.80
2023-04-14T12:36:50.082Z,3.80
2023-04-14T12:39:18.001Z,3.53
2023-04-14T12:41:45.317Z,2.50
2023-04-14T12:44:20.671Z,3.22
2023-04-14T12:46:52.929Z,2.78
2023-04-14T12:49:36.728Z,2.70
2023-04-14T12:52:08.464Z,2.22
2023-04-14T12:54:54.121Z,2.28
2023-04-14T12:57:21.956Z,3.33
2023-04-14T12:59:49.274Z,4.13
2023-04-14T13:02:16.396Z,3.50
2023-04-14T13:04:43.522Z,2.45
2023-04-14T13:07:10.756Z,3.08
2023-04-14T13:09:40.913Z,3.63
2023-04-14T13:12:07.991Z,5.57
2023-04-14T13:14:35.080Z,2.45
2023-04-14T13:17:06.491Z,4.15
2023-04-14T13:19:33.595Z,2.08
2023-04-14T13:22:00.651Z,3.65
2023-04-14T13:24:27.624Z,2.47
2023-04-14T13:26:54.637Z,2.60
2023-04-14T13:29:21.613Z,2.75
2023-04-14T13:31:49.437Z,3.05
2023-04-14T13:34:16.709Z,4.60
2023-04-14T13:36:44.754Z,3.22
2023-04-14T13:39:11.722Z,2.95
2023-04-14T13:41:38.723Z,3.88
2023-04-14T13:44:05.900Z,5.05
2023-04-14T13:46:40.598Z,4.07
2023-04-14T13:49:08.040Z,2.90
2023-04-14T13:51:35.147Z,4.68
2023-04-14T13:54:02.534Z,3.42
2023-04-14T13:56:30.741Z,3.88
2023-04-14T13:58:57.592Z,3.45
2023-04-14T14:01:24.662Z,5.30
2023-04-14T14:03:51.870Z,4.15
2023-04-14T14:06:19.616Z,3.30
2023-04-14T14:08:46.549Z,3.33
2023-04-14T14:11:14.167Z,3.40
2023-04-14T14:13:41.204Z,3.28
2023-04-14T14:16:09.247Z,3.80
2023-04-14T14:18:37.618Z,4.60
2023-04-14T14:21:08.047Z,3.40
2023-04-14T14:23:35.042Z,5.05
2023-04-14T14:26:04.143Z,6.55
2023-04-14T14:28:31.152Z,4.03
2023-04-14T14:30:58.078Z,3.97
2023-04-14T14:33:25.121Z,2.72
2023-04-14T14:35:52.323Z,2.92
2023-04-14T14:38:23.601Z,3.35
2023-04-14T14:40:51.188Z,6.05
2023-04-14T14:43:18.140Z,3.20
2023-04-14T14:45:45.007Z,3.13
2023-04-14T14:48:13.754Z,3.63
2023-04-14T14:50:40.863Z,5.72
2023-04-14T14:53:07.751Z,6.20
2023-04-14T14:55:35.552Z,4.75
2023-04-14T14:58:03.945Z,2.90
2023-04-14T15:00:31.361Z,3.45
2023-04-14T15:03:01.138Z,3.45
2023-04-14T15:05:28.144Z,4.75
2023-04-14T15:07:55.090Z,2.47
2023-04-14T15:10:22.191Z,3.80
2023-04-14T15:12:51.154Z,2.70
2023-04-14T15:15:19.867Z,3.50
2023-04-14T15:17:46.940Z,5.22
2023-04-14T15:20:14.453Z,2.15
2023-04-14T15:22:41.588Z,2.47
2023-04-14T15:25:10.369Z,3.10
2023-04-14T15:27:37.475Z,2.80
2023-04-14T15:30:04.859Z,3.33
2023-04-14T15:32:32.029Z,4.35
2023-04-14T15:34:58.967Z,3.15
2023-04-14T15:37:27.165Z,2.97
2023-04-14T15:39:54.856Z,4.20
2023-04-14T15:42:21.943Z,2.88
2023-04-14T15:44:50.811Z,2.83
2023-04-14T15:47:18.805Z,3.72
2023-04-14T15:49:49.865Z,4.47
2023-04-14T15:52:19.457Z,3.75
2023-04-14T15:54:46.553Z,4.68
2023-04-14T15:57:13.528Z,4.25
2023-04-14T15:59:40.990Z,3.95
2023-04-14T16:02:07.991Z,6.75
2023-04-14T16:04:36.943Z,3.97
2023-04-14T16:07:04.037Z,4.80
2023-04-14T16:09:30.923Z,5.30
2023-04-14T16:11:57.898Z,5.82
2023-04-14T16:14:24.843Z,5.57
2023-04-14T16:16:52.195Z,2.25
2023-04-14T16:19:19.313Z,1.17
2023-04-14T16:21:46.695Z,2.03
2023-04-14T16:24:13.781Z,1.17
2023-04-14T16:26:40.713Z,3.13
2023-04-14T16:29:07.685Z,0.90
2023-04-14T16:31:36.092Z,4.25
2023-04-14T16:34:03.988Z,0.77
2023-04-14T16:36:31.278Z,0.90
2023-04-14T16:38:58.147Z,1.42
2023-04-14T16:41:25.112Z,0.98
2023-04-14T16:43:52.092Z,3.08
2023-04-14T16:46:19.054Z,6.22
2023-04-14T16:48:45.965Z,4.00
2023-04-14T16:51:12.965Z,2.35
2023-04-14T16:53:40.616Z,2.17
2023-04-14T16:56:08.605Z,2.38
2023-04-14T16:58:37.890Z,2.47
2023-04-14T17:01:06.311Z,2.58
2023-04-14T17:03:33.972Z,2.35
2023-04-14T17:06:01.292Z,3.83
2023-04-14T17:08:29.215Z,2.65
2023-04-14T17:10:58.092Z,2.85
2023-04-14T17:16:38.214Z,2.88
2023-04-14T17:19:06.693Z,3.85
2023-04-14T17:21:34.485Z,2.92
2023-04-14T17:24:17.219Z,3.53
2023-04-14T17:26:47.064Z,3.20
2023-04-14T17:29:14.512Z,7.10
2023-04-14T17:31:42.443Z,6.07
2023-04-14T17:47:31.915Z,3.10
2023-04-14T17:54:59.678Z,2.83
2023-04-14T17:57:48.316Z,3.45
2023-04-14T18:00:19.196Z,5.07
2023-04-14T18:02:50.334Z,3.63
2023-04-14T18:05:22.067Z,3.47
2023-04-14T18:11:02.134Z,6.13
2023-04-14T18:13:45.392Z,3.78
2023-04-14T18:16:18.946Z,2.70
2023-04-14T18:19:25.902Z,3.55
2023-04-14T18:21:57.631Z,3.35
2023-04-14T18:31:06.021Z,4.20
2023-04-14T18:33:57.833Z,4.55
2023-04-14T18:36:34.232Z,8.35
2023-04-14T18:42:55.079Z,6.50
2023-04-14T19:04:06.854Z,3.55
2023-04-14T19:18:45.394Z,3.65
2023-04-14T19:21:13.983Z,4.03
2023-04-14T19:45:35.594Z,4.57
2023-04-14T19:51:07.052Z,6.72
2023-04-14T20:04:07.929Z,5.50
2023-04-14T20:06:45.554Z,5.25
2023-04-14T20:09:13.126Z,3.35
2023-04-14T20:12:03.900Z,2.63
2023-04-14T20:14:31.494Z,3.70
2023-04-14T20:17:07.110Z,6.00
2023-04-14T20:19:34.499Z,4.50
2023-04-14T20:22:06.645Z,5.35
2023-04-14T20:24:39.557Z,4.30
2023-04-14T20:27:16.934Z,3.47
2023-04-14T20:29:48.801Z,3.65
2023-04-14T20:32:23.980Z,4.40
2023-04-14T20:34:55.337Z,5.20
2023-04-14T20:37:22.892Z,4.18
2023-04-14T20:40:00.673Z,6.85
2023-04-14T20:42:29.522Z,5.40
2023-04-14T20:45:00.886Z,6.05
2023-04-14T20:51:30.222Z,5.85
2023-04-14T20:54:14.880Z,4.35
2023-04-14T20:56:43.667Z,4.30
2023-04-14T21:02:01.948Z,3.45
2023-04-14T21:04:38.099Z,5.28
2023-04-14T21:07:12.337Z,6.10
2023-04-14T21:09:39.737Z,4.30
2023-04-14T21:12:15.970Z,4.95
2023-04-14T21:15:41.411Z,6.60
2023-04-14T21:17:40.623Z,4.03
2023-04-14T21:20:11.979Z,5.60
2023-04-14T21:22:44.629Z,7.68
2023-04-14T21:25:24.639Z,4.82
2023-04-14T21:33:59.094Z,8.10
2023-04-14T21:36:32.294Z,4.25
2023-04-14T21:38:59.924Z,4.43
2023-04-14T21:41:33.826Z,4.80
2023-04-14T21:44:01.739Z,4.50
2023-04-14T21:46:31.141Z,5.28
2023-04-14T21:49:04.586Z,3.50
2023-04-14T21:57:56.789Z,4.47
2023-04-14T22:03:15.396Z,4.40
2023-04-14T22:05:46.726Z,4.07
2023-04-14T22:08:29.810Z,3.50
2023-04-14T22:15:01.528Z,8.40
2023-04-14T22:17:45.593Z,4.85
2023-04-14T22:20:16.768Z,5.32
2023-04-14T22:22:46.851Z,7.18
2023-04-14T22:25:22.508Z,4.70
2023-04-14T22:27:50.393Z,4.65
2023-04-14T22:34:02.473Z,4.45
2023-04-14T22:36:38.578Z,5.28
2023-04-14T22:45:26.585Z,5.47
2023-04-14T22:48:05.560Z,3.92
2023-04-14T22:50:48.990Z,4.93
2023-04-14T22:57:13.257Z,4.97
2023-04-14T23:03:00.009Z,6.63
2023-04-14T23:05:36.924Z,5.15
2023-04-14T23:08:35.541Z,4.30
2023-04-14T23:49:45.681Z,5.35
2023-04-14T23:52:22.127Z,4.25
